Time;durP1;ratioP1;P1;durP2;ratioP2;P2;SDS_P1;SDS_P2;PMS_P1;PMS_P2;Temp;Humidity;BMP_temperature;BMP_pressure;BME280_temperature;BME280_humidity;BME280_pressure;Samples;Min_cycle;Max_cycle;Signal;HPM_P1;HPM_P2
2021/12/15 00:00:12;;;;;;;35.28;9.65;;;;;;;2.30;100.00;148245.70;1754999;80;21620;-55
2021/12/15 00:02:44;;;;;;;18.30;9.08;;;;;;;2.33;100.00;148253.44;1752045;80;21509;-54
2021/12/15 00:05:09;;;;;;;20.75;9.38;;;;;;;2.33;100.00;148253.44;1740673;80;21051;-54
2021/12/15 00:07:36;;;;;;;22.32;9.03;;;;;;;2.33;100.00;148252.17;1755260;80;21034;-54
2021/12/15 00:10:05;;;;;;;20.25;9.40;;;;;;;2.36;100.00;148259.91;1751716;80;21439;-54
2021/12/15 00:12:32;;;;;;;28.30;9.98;;;;;;;2.36;100.00;148259.91;1748075;80;21546;-54
2021/12/15 00:14:59;;;;;;;19.45;7.92;;;;;;;2.40;100.00;148270.20;1745199;80;21149;-54
2021/12/15 00:17:26;;;;;;;24.27;8.63;;;;;;;2.39;100.00;148267.63;1753732;80;21512;-54
2021/12/15 00:19:54;;;;;;;22.70;8.58;;;;;;;2.39;100.00;148267.63;1745784;80;21146;-54
2021/12/15 00:22:21;;;;;;;24.63;10.35;;;;;;;2.40;100.00;148270.20;1748361;80;21707;-54
2021/12/15 00:24:47;;;;;;;19.67;9.58;;;;;;;2.38;100.00;148266.31;1758618;80;21084;-54
2021/12/15 00:27:14;;;;;;;19.10;8.80;;;;;;;2.38;100.00;148265.06;1685412;83;21621;-54
2021/12/15 00:29:41;;;;;;;30.80;10.25;;;;;;;2.36;100.00;148261.16;1690320;83;21125;-54
2021/12/15 00:32:10;;;;;;;28.23;8.75;;;;;;;2.34;100.00;148256.02;1707195;82;21061;-54
2021/12/15 00:34:38;;;;;;;25.95;9.90;;;;;;;2.33;100.00;148252.17;1696001;82;21150;-54
2021/12/15 00:37:06;;;;;;;22.73;8.83;;;;;;;2.33;100.00;148252.17;1710023;82;21123;-54
2021/12/15 00:39:34;;;;;;;24.52;8.63;;;;;;;2.33;100.00;148252.17;1711693;82;21168;-54
2021/12/15 00:42:02;;;;;;;16.75;7.72;;;;;;;2.31;100.00;148246.97;1708405;82;21055;-54
2021/12/15 00:44:29;;;;;;;19.12;8.58;;;;;;;2.32;100.00;148249.55;1703147;82;22125;-54
2021/12/15 00:46:56;;;;;;;16.32;7.97;;;;;;;2.34;100.00;148254.75;1705871;82;21051;-54
2021/12/15 00:49:25;;;;;;;16.17;7.80;;;;;;;2.32;100.00;148250.86;1700371;82;21134;-56
2021/12/15 00:51:51;;;;;;;16.37;7.78;;;;;;;2.30;100.00;148245.70;1747433;80;21866;-53
2021/12/15 00:54:18;;;;;;;16.77;8.30;;;;;;;2.31;100.00;148248.28;1748446;80;21009;-54
2021/12/15 00:56:45;;;;;;;21.73;8.68;;;;;;;2.32;100.00;148250.86;1751528;80;21084;-53
2021/12/15 00:59:12;;;;;;;29.72;8.68;;;;;;;2.33;100.00;148252.17;1749110;80;21643;-53
2021/12/15 01:01:39;;;;;;;22.22;8.05;;;;;;;2.31;100.00;148246.97;1747103;80;21108;-54
2021/12/15 01:04:06;;;;;;;13.32;7.75;;;;;;;2.33;100.00;148252.17;1736055;79;21551;-53
2021/12/15 01:06:34;;;;;;;15.72;7.58;;;;;;;2.32;100.00;148249.55;1751155;80;21051;-54
2021/12/15 01:09:04;;;;;;;23.95;8.70;;;;;;;2.32;100.00;148250.86;1740717;80;21043;-53
2021/12/15 01:22:19;;;;;;;16.97;8.15;;;;;;;2.27;100.00;148239.25;1749630;80;21036;-54
2021/12/15 01:24:46;;;;;;;18.90;8.93;;;;;;;2.25;100.00;148234.09;1748335;80;21116;-54
2021/12/15 01:27:13;;;;;;;27.15;9.43;;;;;;;2.25;100.00;148234.09;1745655;80;21036;-54
2021/12/15 01:29:41;;;;;;;31.65;9.13;;;;;;;2.24;100.00;148231.52;1746047;80;21119;-54
2021/12/15 01:32:09;;;;;;;23.70;8.70;;;;;;;2.23;100.00;148228.94;1740841;80;21517;-54
2021/12/15 01:34:35;;;;;;;27.55;9.35;;;;;;;2.21;100.00;148223.78;1745966;80;21122;-54
2021/12/15 01:37:03;;;;;;;20.90;7.15;;;;;;;2.19;100.00;148218.62;1745633;80;22263;-55
2021/12/15 01:39:30;;;;;;;31.00;8.15;;;;;;;2.18;100.00;148216.06;1742367;80;21648;-54
2021/12/15 01:41:57;;;;;;;28.42;9.53;;;;;;;2.20;100.00;148219.89;1741935;80;21666;-54
2021/12/15 01:46:56;;;;;;;16.40;8.28;;;;;;;2.23;100.00;148227.67;1716934;81;21023;-54
2021/12/15 01:49:44;;;;;;;22.52;9.43;;;;;;;2.24;100.00;148231.52;1742782;81;21544;-54
2021/12/15 01:52:26;;;;;;;19.23;7.60;;;;;;;2.21;100.00;148223.78;1747736;81;21074;-55
2021/12/15 01:54:59;;;;;;;20.52;7.60;;;;;;;2.17;100.00;148213.47;1743711;81;21642;-55
2021/12/15 01:57:28;;;;;;;33.08;8.53;;;;;;;2.15;100.00;148208.33;1744377;79;21098;-55
2021/12/15 01:59:56;;;;;;;20.15;8.25;;;;;;;2.15;100.00;148208.33;1741615;81;21110;-55
2021/12/15 02:02:24;;;;;;;20.50;8.00;;;;;;;2.16;100.00;148210.91;1746354;81;21070;-55
2021/12/15 02:04:51;;;;;;;15.00;7.83;;;;;;;2.16;100.00;148210.91;1750077;81;21118;-54
2021/12/15 02:07:22;;;;;;;22.60;7.58;;;;;;;2.13;100.00;148204.44;1739186;81;21022;-54
2021/12/15 02:12:24;;;;;;;27.17;7.75;;;;;;;2.12;100.00;148200.59;1738580;81;21070;-54
2021/12/15 02:14:51;;;;;;;18.48;7.60;;;;;;;2.14;100.00;148205.75;1737187;81;21476;-54
2021/12/15 02:17:17;;;;;;;14.65;7.20;;;;;;;2.12;100.00;148200.59;1742055;81;21050;-54
2021/12/15 02:19:45;;;;;;;24.00;7.80;;;;;;;2.09;100.00;148192.81;1736464;81;21064;-54
2021/12/15 02:22:13;;;;;;;19.10;7.65;;;;;;;2.06;100.00;148185.09;1736723;81;21078;-54
2021/12/15 02:24:41;;;;;;;17.20;6.58;;;;;;;2.05;100.00;148182.52;1737730;81;21081;-54
2021/12/15 02:27:11;;;;;;;17.55;6.37;;;;;;;2.05;100.00;148182.52;1739298;81;22233;-54
2021/12/15 02:29:40;;;;;;;10.45;5.37;;;;;;;2.06;100.00;148185.09;1740561;81;21705;-55
2021/12/15 02:32:20;;;;;;;12.65;5.95;;;;;;;2.04;100.00;148181.25;1736569;81;21199;-55
2021/12/15 02:35:07;;;;;;;11.22;5.62;;;;;;;2.05;100.00;148182.52;1735664;81;22103;-54
2021/12/15 02:37:17;;;;;;;17.00;6.37;;;;;;;2.08;100.00;148190.25;1730856;81;21094;-54
2021/12/15 02:39:56;;;;;;;11.83;5.47;;;;;;;2.08;100.00;148190.25;1740994;81;21990;-54
2021/12/15 02:42:28;;;;;;;11.73;5.70;;;;;;;2.08;100.00;148191.56;1736985;80;21680;-54
2021/12/15 02:44:55;;;;;;;10.43;5.90;;;;;;;2.10;100.00;148195.41;1746664;80;21109;-54
2021/12/15 02:47:25;;;;;;;17.92;6.25;;;;;;;2.12;100.00;148200.59;1751089;80;21533;-54
2021/12/15 02:49:53;;;;;;;15.13;5.53;;;;;;;2.13;100.00;148204.44;1748438;80;21473;-53
2021/12/15 02:52:20;;;;;;;12.47;5.47;;;;;;;2.14;100.00;148205.75;1744531;80;22384;-54
2021/12/15 02:54:47;;;;;;;11.35;5.70;;;;;;;2.15;100.00;148209.59;1749531;80;21081;-53
2021/12/15 02:57:14;;;;;;;10.28;5.37;;;;;;;2.16;100.00;148210.91;1747490;80;21098;-54
2021/12/15 03:00:15;;;;;;;14.95;5.78;;;;;;;2.17;100.00;148213.47;1751509;80;21064;-54
2021/12/15 03:02:51;;;;;;;;;;;;;;;2.16;100.00;148210.91;1750110;80;21068;-54
2021/12/15 03:05:01;;;;;;;8.97;5.30;;;;;;;2.16;100.00;148210.91;1743515;80;20206;-54
2021/12/15 03:07:37;;;;;;;10.63;5.03;;;;;;;2.17;100.00;148213.47;1745844;80;21049;-54
2021/12/15 03:15:35;;;;;;;13.62;5.33;;;;;;;2.16;100.00;148210.91;1744790;80;21092;-54
2021/12/15 03:18:14;;;;;;;23.75;6.00;;;;;;;2.15;100.00;148209.59;1750977;80;21100;-54
2021/12/15 03:20:55;;;;;;;20.02;5.50;;;;;;;2.15;100.00;148209.59;1742821;80;21020;-55
2021/12/15 03:23:43;;;;;;;10.28;4.67;;;;;;;2.14;100.00;148207.02;1742734;80;21518;-55
2021/12/15 03:26:08;;;;;;;9.85;5.12;;;;;;;2.14;100.00;148207.02;1746664;80;21071;-54
2021/12/15 03:36:51;;;;;;;7.75;3.62;;;;;;;2.16;100.00;148210.91;1750752;80;21148;-55
2021/12/15 03:39:09;;;;;;;6.45;3.72;;;;;;;2.12;100.00;148200.59;1745406;80;21054;-55
2021/12/15 03:41:35;;;;;;;6.72;3.40;;;;;;;2.12;100.00;148200.59;1738826;80;21045;-55
2021/12/15 03:44:05;;;;;;;12.03;4.17;;;;;;;2.10;100.00;148196.70;1750771;80;21135;-55
2021/12/15 03:46:32;;;;;;;20.77;4.28;;;;;;;2.08;100.00;148190.25;1746436;80;20972;-55
2021/12/15 03:48:59;;;;;;;10.05;4.00;;;;;;;2.07;100.00;148188.97;1746393;80;21080;-56
2021/12/15 03:51:26;;;;;;;11.93;4.28;;;;;;;2.06;100.00;148185.09;1747447;80;21759;-54
2021/12/15 03:53:53;;;;;;;5.78;3.37;;;;;;;2.07;100.00;148188.97;1747748;80;21052;-55
2021/12/15 03:56:20;;;;;;;8.70;4.20;;;;;;;2.04;100.00;148179.94;1751493;80;21597;-54
2021/12/15 03:58:47;;;;;;;24.15;4.30;;;;;;;2.01;100.00;148173.53;1753061;80;21067;-55
2021/12/15 04:01:19;;;;;;;10.05;3.40;;;;;;;1.99;100.00;148169.64;1752789;80;21153;-55
2021/12/15 04:03:49;;;;;;;10.38;4.25;;;;;;;1.97;100.00;148164.48;1749209;80;21092;-55
2021/12/15 04:06:25;;;;;;;16.27;3.77;;;;;;;1.95;100.00;148159.33;1745408;80;21083;-54
2021/12/15 04:08:53;;;;;;;18.00;5.17;;;;;;;1.92;100.00;148151.59;1754402;80;21435;-54
2021/12/15 04:11:21;;;;;;;7.80;4.17;;;;;;;1.87;100.00;148138.67;1744938;80;21119;-54
2021/12/15 04:13:51;;;;;;;9.38;4.55;;;;;;;1.84;100.00;148130.95;1747542;80;21139;-54
2021/12/15 04:19:00;;;;;;;22.67;4.83;;;;;;;1.78;100.00;148116.81;1756066;80;21031;-54
2021/12/15 04:21:27;;;;;;;17.87;4.35;;;;;;;1.79;100.00;148118.06;1746462;80;21084;-54
2021/12/15 04:23:57;;;;;;;5.65;3.77;;;;;;;1.76;100.00;148111.61;1753415;80;21099;-54
2021/12/15 04:26:24;;;;;;;11.93;4.62;;;;;;;1.73;100.00;148102.63;1750628;80;21156;-53
2021/12/15 04:28:52;;;;;;;20.37;5.22;;;;;;;1.69;100.00;148093.58;1754254;80;21110;-54
2021/12/15 04:31:23;;;;;;;10.72;4.70;;;;;;;1.68;100.00;148092.31;1758323;80;21051;-54
2021/12/15 04:33:55;;;;;;;11.35;4.97;;;;;;;1.69;100.00;148094.89;1740703;80;21085;-54
2021/12/15 04:36:26;;;;;;;8.45;4.55;;;;;;;1.73;100.00;148102.63;1756413;80;21060;-53
2021/12/15 04:38:54;;;;;;;15.13;4.92;;;;;;;1.71;100.00;148100.05;1750743;80;21199;-55
2021/12/15 04:41:21;;;;;;;8.43;4.53;;;;;;;1.71;100.00;148098.73;1687041;83;22862;-55
2021/12/15 04:43:57;;;;;;;10.58;4.45;;;;;;;1.72;100.00;148101.31;1684556;81;21146;-55
2021/12/15 04:46:19;;;;;;;7.10;4.55;;;;;;;1.70;100.00;148097.47;1693802;82;21060;-55
2021/12/15 04:48:45;;;;;;;7.97;4.50;;;;;;;1.70;100.00;148096.16;1697469;82;21040;-55
2021/12/15 04:51:12;;;;;;;7.83;4.40;;;;;;;1.69;100.00;148094.89;1699227;82;21509;-55
2021/12/15 04:53:41;;;;;;;10.18;4.35;;;;;;;1.68;100.00;148091.00;1699480;82;21091;-56
2021/12/15 04:56:08;;;;;;;12.23;5.62;;;;;;;1.68;100.00;148092.31;1697141;82;21068;-54
2021/12/15 04:58:35;;;;;;;10.80;5.50;;;;;;;1.67;100.00;148088.44;1699637;82;21146;-54
2021/12/15 05:01:05;;;;;;;11.90;5.83;;;;;;;1.66;100.00;148085.86;1694347;82;21034;-55
2021/12/15 05:03:32;;;;;;;12.70;6.78;;;;;;;1.65;100.00;148083.28;1702631;82;21525;-54
2021/12/15 05:06:01;;;;;;;14.80;9.08;;;;;;;1.63;100.00;148079.39;1703820;82;21048;-55
2021/12/15 05:08:28;;;;;;;15.08;8.00;;;;;;;1.62;100.00;148076.81;1701519;82;21085;-54
2021/12/15 05:10:56;;;;;;;9.75;5.92;;;;;;;1.63;100.00;148078.13;1695251;82;21798;-54
2021/12/15 05:13:25;;;;;;;14.20;6.75;;;;;;;1.63;100.00;148079.39;1701324;82;21727;-55
2021/12/15 05:15:51;;;;;;;12.03;6.47;;;;;;;1.64;100.00;148080.70;1702650;82;21245;-54
2021/12/15 05:18:19;;;;;;;9.68;6.10;;;;;;;1.65;100.00;148084.55;1705974;82;21100;-53
2021/12/15 05:20:49;;;;;;;8.45;5.15;;;;;;;1.67;100.00;148089.75;1704118;82;21088;-54
2021/12/15 05:23:16;;;;;;;10.43;5.67;;;;;;;1.67;100.00;148089.75;1702169;82;21593;-54
2021/12/15 05:25:44;;;;;;;11.12;5.80;;;;;;;1.70;100.00;148097.47;1710941;82;22368;-54
2021/12/15 05:28:11;;;;;;;13.68;6.75;;;;;;;1.73;100.00;148102.63;1713179;82;21120;-54
2021/12/15 05:30:38;;;;;;;12.05;6.65;;;;;;;1.71;100.00;148100.05;1702525;82;21020;-56
2021/12/15 05:33:06;;;;;;;11.12;5.78;;;;;;;1.70;100.00;148097.47;1699727;82;21052;-54
2021/12/15 05:35:34;;;;;;;15.18;6.78;;;;;;;1.70;100.00;148096.16;1700295;82;21623;-54
2021/12/15 05:38:01;;;;;;;12.90;6.87;;;;;;;1.69;100.00;148094.89;1702750;82;21617;-55
2021/12/15 05:40:28;;;;;;;10.63;5.60;;;;;;;1.68;100.00;148092.31;1744714;80;21505;-57
2021/12/15 05:42:58;;;;;;;13.38;6.58;;;;;;;1.68;100.00;148092.31;1743787;79;21591;-57
2021/12/15 05:45:31;;;;;;;23.22;7.28;;;;;;;1.66;100.00;148087.17;1746796;80;20993;-57
2021/12/15 05:47:58;;;;;;;12.53;6.62;;;;;;;1.65;100.00;148084.55;1749212;80;21028;-57
2021/12/15 05:50:27;;;;;;;13.05;5.83;;;;;;;1.65;100.00;148084.55;1754769;80;21676;-57
2021/12/15 05:52:54;;;;;;;16.77;6.75;;;;;;;1.65;100.00;148084.55;1749633;80;21542;-57
2021/12/15 05:55:21;;;;;;;11.55;5.50;;;;;;;1.65;100.00;148083.28;1744398;80;21685;-57
2021/12/15 05:57:48;;;;;;;13.05;6.10;;;;;;;1.65;100.00;148083.28;1744139;80;21060;-57
2021/12/15 06:00:20;;;;;;;10.82;5.78;;;;;;;1.65;100.00;148084.55;1743812;80;21127;-58
2021/12/15 06:02:47;;;;;;;9.68;4.78;;;;;;;1.65;100.00;148084.55;1749596;80;21599;-57
2021/12/15 06:05:14;;;;;;;11.78;4.72;;;;;;;1.65;100.00;148084.55;1744616;80;21526;-57
2021/12/15 06:07:42;;;;;;;10.30;5.28;;;;;;;1.63;100.00;148079.39;1733847;80;21061;-57
2021/12/15 06:10:12;;;;;;;17.23;6.30;;;;;;;1.65;100.00;148084.55;1747457;80;21143;-57
2021/12/15 06:12:42;;;;;;;15.43;5.92;;;;;;;1.66;100.00;148087.17;1746790;80;21522;-57
2021/12/15 06:15:10;;;;;;;11.93;4.80;;;;;;;1.66;100.00;148085.86;1747490;80;21143;-57
2021/12/15 06:17:36;;;;;;;11.63;4.62;;;;;;;1.65;100.00;148084.55;1750580;80;21134;-58
2021/12/15 06:20:06;;;;;;;10.65;5.33;;;;;;;1.64;100.00;148081.97;1740002;80;21059;-56
2021/12/15 06:22:36;;;;;;;9.80;4.72;;;;;;;1.64;100.00;148081.97;1744057;80;21573;-56
2021/12/15 06:25:02;;;;;;;14.68;5.90;;;;;;;1.63;100.00;148079.39;1746098;80;21131;-58
2021/12/15 06:27:30;;;;;;;14.05;5.83;;;;;;;1.64;100.00;148080.70;1751750;80;21453;-54
2021/12/15 06:29:57;;;;;;;12.28;5.55;;;;;;;1.65;100.00;148084.55;1745004;80;21145;-56
2021/12/15 06:32:24;;;;;;;16.12;6.50;;;;;;;1.69;100.00;148094.89;1752528;80;20970;-55
2021/12/15 06:34:51;;;;;;;12.82;5.87;;;;;;;1.71;100.00;148100.05;1743068;80;21091;-56
2021/12/15 06:37:18;;;;;;;9.10;3.70;;;;;;;1.75;100.00;148107.77;1751714;80;21040;-56
2021/12/15 06:39:48;;;;;;;12.95;6.17;;;;;;;1.73;100.00;148103.88;1741772;80;21075;-56
2021/12/15 06:42:15;;;;;;;13.38;5.78;;;;;;;1.73;100.00;148103.88;1747515;80;21064;-54
2021/12/15 06:44:43;;;;;;;13.15;5.90;;;;;;;1.75;100.00;148107.77;1746142;80;21703;-54
2021/12/15 07:00:37;;;;;;;15.55;6.10;;;;;;;1.77;100.00;148112.92;1746511;80;21126;-54
2021/12/15 07:03:04;;;;;;;17.90;5.92;;;;;;;1.77;100.00;148112.92;1742387;80;21084;-54
2021/12/15 07:05:32;;;;;;;13.13;6.05;;;;;;;1.77;100.00;148112.92;1731861;80;21127;-54
2021/12/15 07:08:01;;;;;;;10.88;5.87;;;;;;;1.79;100.00;148118.06;1737383;80;40437;-55
2021/12/15 07:10:31;;;;;;;18.85;5.80;;;;;;;1.81;100.00;148123.22;1737158;80;21147;-54
2021/12/15 07:12:59;;;;;;;13.00;6.10;;;;;;;1.82;100.00;148125.80;1736979;80;21046;-55
2021/12/15 07:15:28;;;;;;;17.67;6.00;;;;;;;1.82;100.00;148125.80;1704821;80;21623;-56
2021/12/15 07:18:02;;;;;;;21.52;6.53;;;;;;;1.84;100.00;148130.95;1735091;80;21079;-57
2021/12/15 07:20:43;;;;;;;13.10;5.72;;;;;;;1.87;100.00;148138.67;1738195;80;21656;-56
2021/12/15 07:23:09;;;;;;;12.90;5.60;;;;;;;1.87;100.00;148138.67;1744164;80;21648;-59
2021/12/15 07:25:38;;;;;;;14.70;5.30;;;;;;;1.86;100.00;148136.09;1729248;80;21633;-57
2021/12/15 07:28:06;;;;;;;11.70;5.55;;;;;;;1.85;100.00;148134.84;1743058;80;21066;-58
2021/12/15 07:30:35;;;;;;;10.80;5.55;;;;;;;1.85;100.00;148134.84;1740273;80;21044;-57
2021/12/15 07:33:02;;;;;;;10.82;5.45;;;;;;;1.84;100.00;148130.95;1738562;80;23137;-57
2021/12/15 07:35:29;;;;;;;10.70;5.87;;;;;;;1.84;100.00;148130.95;1742879;80;21078;-57
2021/12/15 07:37:56;;;;;;;12.53;5.45;;;;;;;1.84;100.00;148130.95;1734693;80;21151;-57
2021/12/15 07:40:24;;;;;;;10.45;5.53;;;;;;;1.82;100.00;148127.11;1746191;80;20902;-56
2021/12/15 07:43:07;;;;;;;21.40;6.28;;;;;;;1.81;100.00;148123.22;1746587;80;20977;-58
2021/12/15 07:45:47;;;;;;;11.95;5.17;;;;;;;1.81;100.00;148123.22;1737905;80;21258;-60
2021/12/15 07:48:15;;;;;;;12.88;4.95;;;;;;;1.83;100.00;148128.38;1741880;80;20890;-56
2021/12/15 07:50:45;;;;;;;14.80;5.35;;;;;;;1.83;100.00;148129.69;1740357;80;20870;-57
2021/12/15 07:53:14;;;;;;;11.33;5.58;;;;;;;1.86;100.00;148136.09;1740737;80;21076;-57
2021/12/15 07:55:41;;;;;;;19.87;6.12;;;;;;;1.87;100.00;148138.67;1738525;80;21369;-56
2021/12/15 07:58:08;;;;;;;17.95;5.85;;;;;;;1.89;100.00;148143.88;1734224;80;21209;-57
2021/12/15 08:00:38;;;;;;;17.98;5.67;;;;;;;1.91;100.00;148149.03;1734301;80;21302;-54
2021/12/15 08:03:05;;;;;;;16.10;4.45;;;;;;;1.94;100.00;148155.44;1739726;80;21044;-55
2021/12/15 08:05:36;;;;;;;16.77;5.37;;;;;;;1.96;100.00;148161.91;1743900;80;21110;-55
2021/12/15 08:08:04;;;;;;;12.40;5.20;;;;;;;1.99;100.00;148169.64;1736967;80;21003;-54
2021/12/15 08:10:32;;;;;;;20.17;5.30;;;;;;;2.04;100.00;148179.94;1705320;82;21558;-56
2021/12/15 08:13:01;;;;;;;9.48;4.67;;;;;;;2.08;100.00;148190.25;1742563;80;21092;-55
2021/12/15 08:15:29;;;;;;;12.50;5.45;;;;;;;2.15;100.00;148208.33;1737610;80;21150;-55
2021/12/15 08:17:56;;;;;;;11.40;4.80;;;;;;;2.17;100.00;148212.16;1735705;80;21184;-56
2021/12/15 08:20:27;;;;;;;9.23;4.03;;;;;;;2.18;100.00;148216.06;1732615;80;21100;-54
2021/12/15 08:22:54;;;;;;;19.25;4.75;;;;;;;2.17;100.00;148213.47;1741980;80;22364;-54
2021/12/15 08:25:21;;;;;;;8.98;4.92;;;;;;;2.15;100.00;148208.33;1747191;80;21080;-55
2021/12/15 08:27:50;;;;;;;7.62;3.80;;;;;;;2.15;100.00;148209.59;1733972;80;21635;-55
2021/12/15 08:30:22;;;;;;;8.33;4.15;;;;;;;2.14;100.00;148205.75;1738037;80;21068;-54
2021/12/15 08:32:51;;;;;;;16.80;4.58;;;;;;;2.13;100.00;148204.44;1738928;80;21115;-54
2021/12/15 08:35:21;;;;;;;15.23;5.85;;;;;;;2.13;100.00;148203.17;1737240;80;21970;-54
2021/12/15 08:37:48;;;;;;;13.75;4.67;;;;;;;2.16;100.00;148210.91;1739261;80;21115;-56
2021/12/15 08:40:15;;;;;;;31.00;6.30;;;;;;;2.14;100.00;148205.75;1737982;80;22374;-55
2021/12/15 08:42:42;;;;;;;12.37;4.55;;;;;;;2.15;100.00;148208.33;1738698;80;21119;-56
2021/12/15 08:45:09;;;;;;;9.95;5.35;;;;;;;2.13;100.00;148203.17;1733554;80;21056;-57
2021/12/15 08:47:36;;;;;;;24.10;5.25;;;;;;;2.11;100.00;148198.02;1737678;80;21196;-57
2021/12/15 08:50:08;;;;;;;8.93;4.97;;;;;;;2.10;100.00;148195.41;1735455;80;21817;-56
2021/12/15 08:52:35;;;;;;;16.25;5.62;;;;;;;2.08;100.00;148191.56;1737825;80;21087;-54
2021/12/15 08:55:04;;;;;;;12.53;4.53;;;;;;;2.07;100.00;148188.97;1734482;80;21096;-55
2021/12/15 08:57:31;;;;;;;7.75;3.27;;;;;;;2.10;100.00;148195.41;1703380;82;21606;-54
2021/12/15 08:59:58;;;;;;;9.38;4.20;;;;;;;2.10;100.00;148195.41;1695104;82;21137;-56
2021/12/15 09:02:24;;;;;;;11.63;4.22;;;;;;;2.11;100.00;148198.02;1698640;82;21100;-55
2021/12/15 09:04:51;;;;;;;16.25;4.87;;;;;;;2.14;100.00;148205.75;1697804;82;21476;-54
2021/12/15 09:07:19;;;;;;;7.30;4.47;;;;;;;2.17;100.00;148213.47;1702670;82;21082;-55
2021/12/15 09:09:46;;;;;;;10.95;4.47;;;;;;;2.19;100.00;148217.31;1739192;80;22318;-55
2021/12/15 09:12:14;;;;;;;19.25;6.35;;;;;;;2.21;100.00;148223.78;1738799;80;21142;-57
2021/12/15 09:14:41;;;;;;;11.18;4.78;;;;;;;2.20;100.00;148219.89;1738473;80;21332;-56
2021/12/15 09:17:08;;;;;;;12.55;5.83;;;;;;;2.19;100.00;148218.62;1741866;80;21131;-55
2021/12/15 09:19:35;;;;;;;12.18;5.15;;;;;;;2.17;100.00;148213.47;1737812;80;21135;-56
2021/12/15 09:22:03;;;;;;;17.27;5.97;;;;;;;2.17;100.00;148213.47;1743374;80;21107;-55
2021/12/15 09:24:30;;;;;;;16.02;5.03;;;;;;;2.20;100.00;148221.20;1739781;80;21045;-54
2021/12/15 09:27:00;;;;;;;18.80;5.92;;;;;;;2.20;100.00;148221.20;1738056;80;21199;-56
2021/12/15 09:29:27;;;;;;;11.60;4.00;;;;;;;2.20;100.00;148221.20;1735160;80;21144;-55
2021/12/15 09:31:54;;;;;;;16.77;5.33;;;;;;;2.20;100.00;148221.20;1736311;80;21513;-54
2021/12/15 09:34:21;;;;;;;19.40;4.90;;;;;;;2.20;100.00;148219.89;1732311;80;21103;-54
2021/12/15 09:36:51;;;;;;;23.75;5.85;;;;;;;2.21;100.00;148223.78;1738138;80;21071;-57
2021/12/15 09:39:20;;;;;;;23.25;6.15;;;;;;;2.21;100.00;148223.78;1738947;80;21130;-56
2021/12/15 09:41:49;;;;;;;13.98;5.40;;;;;;;2.22;100.00;148226.36;1737165;80;21083;-57
2021/12/15 09:44:20;;;;;;;16.70;5.10;;;;;;;2.20;100.00;148221.20;1705647;82;21070;-57
2021/12/15 10:03:00;;;;;;;10.48;3.95;;;;;;;2.28;100.00;148241.81;1700279;82;21160;-57
2021/12/15 10:11:15;;;;;;;14.60;5.90;;;;;;;2.26;100.00;148236.66;1745587;80;21362;-57
2021/12/15 10:19:42;;;;;;;11.97;5.12;;;;;;;2.29;100.00;148244.39;1743168;80;21282;-56
2021/12/15 10:22:38;;;;;;;7.78;3.90;;;;;;;2.27;100.00;148239.25;1741602;80;21089;-57
2021/12/15 10:25:19;;;;;;;18.95;5.37;;;;;;;2.27;100.00;148239.25;1740961;80;21076;-56
2021/12/15 10:28:08;;;;;;;22.73;5.65;;;;;;;2.28;100.00;148241.81;1742345;80;21124;-57
2021/12/15 10:30:42;;;;;;;22.37;6.35;;;;;;;2.31;100.00;148246.97;1745956;80;21782;-57
2021/12/15 10:33:17;;;;;;;9.98;5.10;;;;;;;2.34;100.00;148256.02;1743260;80;21374;-58
2021/12/15 10:35:47;;;;;;;9.55;4.85;;;;;;;2.33;100.00;148252.17;1735614;80;21777;-58
2021/12/15 10:38:30;;;;;;;15.53;5.40;;;;;;;2.35;100.00;148257.33;1744908;80;21083;-57
2021/12/15 10:41:01;;;;;;;11.55;5.60;;;;;;;2.35;100.00;148258.59;1743687;80;21111;-57
2021/12/15 10:43:36;;;;;;;11.38;4.95;;;;;;;2.37;100.00;148262.48;1748013;80;21509;-57
2021/12/15 10:46:22;;;;;;;10.38;5.33;;;;;;;2.35;100.00;148257.33;1736326;80;28414;-56
2021/12/15 10:48:54;;;;;;;16.90;6.10;;;;;;;2.35;100.00;148257.33;1740256;80;21123;-56
2021/12/15 10:51:39;;;;;;;17.30;6.67;;;;;;;2.36;100.00;148261.16;1742252;80;21119;-58
2021/12/15 10:54:11;;;;;;;17.35;6.53;;;;;;;2.38;100.00;148265.06;1743995;80;21009;-57
2021/12/15 10:56:49;;;;;;;16.35;5.70;;;;;;;2.36;100.00;148259.91;1738233;80;21840;-58
2021/12/15 10:59:17;;;;;;;13.78;5.72;;;;;;;2.32;100.00;148249.55;1736433;80;21733;-58
2021/12/15 11:02:01;;;;;;;12.95;5.15;;;;;;;2.31;100.00;148246.97;1738106;80;21695;-58
2021/12/15 11:04:42;;;;;;;14.87;5.45;;;;;;;2.29;100.00;148243.13;1735615;80;21594;-58
2021/12/15 11:07:17;;;;;;;12.20;6.15;;;;;;;2.27;100.00;148237.98;1738030;80;21284;-58
2021/12/15 11:09:54;;;;;;;15.48;6.05;;;;;;;2.26;100.00;148235.41;1734939;80;21820;-58
2021/12/15 11:12:32;;;;;;;14.95;6.72;;;;;;;2.26;100.00;148236.66;1734367;80;21030;-59
2021/12/15 11:15:16;;;;;;;14.43;6.65;;;;;;;2.27;100.00;148239.25;1732706;80;21390;-56
2021/12/15 11:17:48;;;;;;;14.60;7.10;;;;;;;2.29;100.00;148243.13;1738420;80;21068;-57
2021/12/15 11:20:22;;;;;;;14.43;6.72;;;;;;;2.32;100.00;148249.55;1737402;80;21119;-57
2021/12/15 11:23:10;;;;;;;13.62;6.97;;;;;;;2.35;100.00;148258.59;1742726;80;21149;-57
2021/12/15 11:25:55;;;;;;;15.70;6.90;;;;;;;2.36;100.00;148259.91;1736913;80;21075;-57
2021/12/15 11:28:42;;;;;;;15.10;6.78;;;;;;;2.37;100.00;148262.48;1736725;80;21045;-58
2021/12/15 11:31:15;;;;;;;13.43;6.65;;;;;;;2.40;100.00;148270.20;1737990;80;21100;-60
2021/12/15 11:33:55;;;;;;;14.15;7.05;;;;;;;2.41;100.00;148274.05;1743381;80;21048;-57
2021/12/15 11:36:32;;;;;;;17.70;6.65;;;;;;;2.41;100.00;148272.78;1737364;80;21273;-57
2021/12/15 11:39:20;;;;;;;13.65;6.17;;;;;;;2.39;100.00;148267.63;1738742;80;21079;-58
2021/12/15 11:41:50;;;;;;;14.13;6.12;;;;;;;2.37;100.00;148262.48;1733818;80;21099;-57
2021/12/15 11:44:20;;;;;;;18.02;6.85;;;;;;;2.35;100.00;148257.33;1737513;80;21041;-58
2021/12/15 11:46:57;;;;;;;15.98;7.08;;;;;;;2.35;100.00;148257.33;1749021;79;21648;-58
2021/12/15 11:49:27;;;;;;;20.50;6.85;;;;;;;2.36;100.00;148259.91;1742455;80;21158;-58
2021/12/15 11:52:00;;;;;;;10.50;5.53;;;;;;;2.38;100.00;148266.31;1745388;80;20937;-57
2021/12/15 11:54:35;;;;;;;14.00;4.90;;;;;;;2.38;100.00;148266.31;1743630;80;21051;-57
2021/12/15 11:57:08;;;;;;;13.53;5.95;;;;;;;2.40;100.00;148270.20;1737031;80;21463;-59
2021/12/15 11:59:40;;;;;;;14.65;5.35;;;;;;;2.41;100.00;148272.78;1744778;80;21458;-57
2021/12/15 12:02:25;;;;;;;14.73;5.47;;;;;;;2.40;100.00;148270.20;1715445;81;21119;-58
2021/12/15 12:05:03;;;;;;;11.12;5.80;;;;;;;2.43;100.00;148279.25;1745937;80;21360;-57
2021/12/15 12:07:33;;;;;;;9.20;4.50;;;;;;;2.47;100.00;148286.98;1744882;80;21821;-59
2021/12/15 12:10:16;;;;;;;17.15;5.45;;;;;;;2.46;100.00;148285.67;1744251;80;21138;-57
2021/12/15 12:12:57;;;;;;;13.85;6.05;;;;;;;2.45;100.00;148283.09;1746425;80;21087;-57
2021/12/15 12:15:25;;;;;;;15.53;6.35;;;;;;;2.47;100.00;148288.25;1743388;80;21246;-58
2021/12/15 12:18:03;;;;;;;23.83;6.72;;;;;;;2.48;100.00;148290.83;1749181;80;21115;-58
2021/12/15 12:20:40;;;;;;;14.38;5.58;;;;;;;2.48;100.00;148290.83;1748820;80;20921;-56
2021/12/15 12:23:13;;;;;;;11.45;6.05;;;;;;;2.49;100.00;148293.41;1749393;80;21565;-55
2021/12/15 12:25:53;;;;;;;19.92;6.00;;;;;;;2.49;100.00;148292.14;1740765;80;21030;-57
2021/12/15 12:28:26;;;;;;;25.12;5.53;;;;;;;2.48;100.00;148290.83;1750014;80;21486;-55
2021/12/15 12:30:57;;;;;;;21.77;5.58;;;;;;;2.47;100.00;148288.25;1746962;80;21038;-57
2021/12/15 12:33:24;;;;;;;20.85;6.55;;;;;;;2.43;100.00;148279.25;1744654;80;21095;-57
2021/12/15 12:35:56;;;;;;;16.65;6.47;;;;;;;2.43;100.00;148279.25;1748053;80;22113;-58
2021/12/15 12:38:26;;;;;;;11.93;5.72;;;;;;;2.44;100.00;148280.52;1748715;80;21405;-54
2021/12/15 12:41:01;;;;;;;14.98;5.75;;;;;;;2.43;100.00;148277.94;1743797;80;21857;-58
2021/12/15 12:43:32;;;;;;;11.83;5.70;;;;;;;2.42;100.00;148276.62;1747657;80;21703;-58
2021/12/15 12:46:17;;;;;;;15.55;6.22;;;;;;;2.44;100.00;148280.52;1741294;80;21130;-55